Terminal Aerodrome Forecast
Issued by NWS

Current Version | Previous Version | Text Only | Print | Product List | Glossary On
Versions: 1 2 3 4 5 6 7 8 9 10 11 12 13 14 15 16 17 18 19 20 21 22 23 24 25 26 27 28
000
FTUS44 KOUN 301142
TAFHBR
TAF
KHBR 301142Z 3012/3112 14011KT P6SM -RA OVC030
      TEMPO 3012/3016 2SM -TSRA BR OVC020CB
     FM301600 14012KT 4SM -RA BKN015
      TEMPO 3016/3018 2SM -TSRA BKN015CB
     FM301800 09010KT P6SM SCT015 OVC030
      TEMPO 3023/3103 4SM -TSRA BKN020CB=

USA.gov is the U.S. government's official web portal to all federal, state and local government web resources and services.